Terminal Aerodrome Forecast
Issued by NWS Lake Charles, LA

Home | Current Version | Previous Version | Text Only | Print | Product List | Glossary On
Versions: 1 2 3 4 5 6 7 8 9 10 11 12
614
FTUS44 KLCH 200520
TAFLFT
TAF
KLFT 200520Z 2006/2106 VRB03KT P6SM BKN250
     FM201400 11008KT P6SM SCT035
     FM210000 10004KT P6SM FEW050 BKN200=

USA.gov is the U.S. government's official web portal to all federal, state and local government web resources and services.